sensor_id;sensor_type;location;lat;lon;timestamp;pressure;altitude;pressure_sealevel;temperature;humidity
53699;BME280;68408;53.952;27.612;2024-01-30T00:03:53;1030.8;;;3.5;63.1
53699;BME280;68408;53.952;27.612;2024-01-30T00:09:01;1030.8;;;3.5;63.2
53699;BME280;68408;53.952;27.612;2024-01-30T00:13:53;1030.7;;;3.6;63.1
53699;BME280;68408;53.952;27.612;2024-01-30T00:19:17;1030.7;;;3.6;62.9
53699;BME280;68408;53.952;27.612;2024-01-30T00:23:53;1030.6;;;3.7;62.8
53699;BME280;68408;53.952;27.612;2024-01-30T00:29:31;1030.5;;;3.6;62.6
53699;BME280;68408;53.952;27.612;2024-01-30T00:34:21;1030.5;;;3.6;63
53699;BME280;68408;53.952;27.612;2024-01-30T00:39:31;1030.5;;;3.6;63
53699;BME280;68408;53.952;27.612;2024-01-30T00:44:29;1030.4;;;3.6;63.1
53699;BME280;68408;53.952;27.612;2024-01-30T00:48:57;1030.3;;;3.6;63.4
53699;BME280;68408;53.952;27.612;2024-01-30T00:54:31;1030.2;;;3.6;63.3
53699;BME280;68408;53.952;27.612;2024-01-30T00:58:55;1030.2;;;3.6;63.2
53699;BME280;68408;53.952;27.612;2024-01-30T01:04:19;1030.2;;;3.6;63.1
53699;BME280;68408;53.952;27.612;2024-01-30T01:09:05;1030.1;;;3.6;63.2
53699;BME280;68408;53.952;27.612;2024-01-30T01:14:09;1030.1;;;3.5;63.6
53699;BME280;68408;53.952;27.612;2024-01-30T01:18:55;1030;;;3.5;63.5
53699;BME280;68408;53.952;27.612;2024-01-30T01:24:31;1029.9;;;3.5;63.5
53699;BME280;68408;53.952;27.612;2024-01-30T01:29:05;1029.9;;;3.4;63.5
53699;BME280;68408;53.952;27.612;2024-01-30T01:34:31;1029.8;;;3.3;63.5
53699;BME280;68408;53.952;27.612;2024-01-30T01:39:09;1029.8;;;3.2;63.8
53699;BME280;68408;53.952;27.612;2024-01-30T01:43:53;1029.8;;;3.1;64.1
53699;BME280;68408;53.952;27.612;2024-01-30T01:48:53;1029.7;;;3.1;64.3
53699;BME280;68408;53.952;27.612;2024-01-30T01:53:53;1029.7;;;3;64.1
53699;BME280;68408;53.952;27.612;2024-01-30T01:58:59;1029.6;;;2.9;64.4
53699;BME280;68408;53.952;27.612;2024-01-30T02:03:57;1029.5;;;2.9;64.8
53699;BME280;68408;53.952;27.612;2024-01-30T02:09:09;1029.5;;;2.9;64.9
53699;BME280;68408;53.952;27.612;2024-01-30T02:14:03;1029.4;;;2.9;64.9
53699;BME280;68408;53.952;27.612;2024-01-30T02:19:05;1029.4;;;2.9;64.8
53699;BME280;68408;53.952;27.612;2024-01-30T02:23:53;1029.3;;;2.9;64.8
53699;BME280;68408;53.952;27.612;2024-01-30T02:29:21;1029.3;;;3;64.6
53699;BME280;68408;53.952;27.612;2024-01-30T02:34:05;1029.3;;;2.9;64.6
53699;BME280;68408;53.952;27.612;2024-01-30T02:39:19;1029.3;;;2.9;64.7
53699;BME280;68408;53.952;27.612;2024-01-30T02:44:07;1029.3;;;2.9;64.9
53699;BME280;68408;53.952;27.612;2024-01-30T02:49:17;1029.2;;;2.9;64.6
53699;BME280;68408;53.952;27.612;2024-01-30T02:54:31;1029.2;;;2.9;64.5
53699;BME280;68408;53.952;27.612;2024-01-30T02:59:31;1029.2;;;2.8;64.6
53699;BME280;68408;53.952;27.612;2024-01-30T03:04:17;1029.1;;;2.8;64.8
53699;BME280;68408;53.952;27.612;2024-01-30T03:09:31;1029.1;;;2.8;64.8
53699;BME280;68408;53.952;27.612;2024-01-30T03:14:17;1029.1;;;2.8;64.7
53699;BME280;68408;53.952;27.612;2024-01-30T03:18:53;1029.1;;;2.8;64.8
53699;BME280;68408;53.952;27.612;2024-01-30T03:23:57;1029.2;;;2.7;64.9
53699;BME280;68408;53.952;27.612;2024-01-30T03:28:57;1029.2;;;2.7;65
53699;BME280;68408;53.952;27.612;2024-01-30T03:34:33;1029.1;;;2.7;65
53699;BME280;68408;53.952;27.612;2024-01-30T03:39:09;1029.1;;;2.7;64.9
53699;BME280;68408;53.952;27.612;2024-01-30T03:44:21;1029;;;2.7;64.8
53699;BME280;68408;53.952;27.612;2024-01-30T03:49:07;1029;;;2.7;64.8
53699;BME280;68408;53.952;27.612;2024-01-30T03:54:33;1029;;;2.6;65
53699;BME280;68408;53.952;27.612;2024-01-30T03:59:03;1029;;;2.6;65.1
53699;BME280;68408;53.952;27.612;2024-01-30T04:04:33;1028.9;;;2.5;65.3
53699;BME280;68408;53.952;27.612;2024-01-30T04:08:59;1028.8;;;2.5;65.2
53699;BME280;68408;53.952;27.612;2024-01-30T04:14:21;1028.8;;;2.5;65.3
53699;BME280;68408;53.952;27.612;2024-01-30T04:19:07;1028.8;;;2.5;65.3
53699;BME280;68408;53.952;27.612;2024-01-30T04:24:33;1028.7;;;2.5;65.3
53699;BME280;68408;53.952;27.612;2024-01-30T04:29:33;1028.8;;;2.5;65.3
53699;BME280;68408;53.952;27.612;2024-01-30T04:34:22;1028.7;;;2.4;65.3
53699;BME280;68408;53.952;27.612;2024-01-30T04:39:05;1028.7;;;2.4;65.3
53699;BME280;68408;53.952;27.612;2024-01-30T04:44:33;1028.6;;;2.4;65.2
53699;BME280;68408;53.952;27.612;2024-01-30T04:49:07;1028.6;;;2.4;65.2
53699;BME280;68408;53.952;27.612;2024-01-30T04:54:21;1028.6;;;2.4;65.2
53699;BME280;68408;53.952;27.612;2024-01-30T04:58:59;1028.6;;;2.4;65
53699;BME280;68408;53.952;27.612;2024-01-30T05:04:07;1028.6;;;2.4;64.9
53699;BME280;68408;53.952;27.612;2024-01-30T05:09:21;1028.5;;;2.4;64.9
53699;BME280;68408;53.952;27.612;2024-01-30T05:13:59;1028.5;;;2.5;64.8
53699;BME280;68408;53.952;27.612;2024-01-30T05:18:53;1028.5;;;2.6;64.6
53699;BME280;68408;53.952;27.612;2024-01-30T05:24:01;1028.4;;;2.6;64.5
53699;BME280;68408;53.952;27.612;2024-01-30T05:29:11;1028.4;;;2.6;64.4
53699;BME280;68408;53.952;27.612;2024-01-30T05:33:54;1028.4;;;2.7;64.2
53699;BME280;68408;53.952;27.612;2024-01-30T05:39:31;1028.5;;;2.7;64.1
53699;BME280;68408;53.952;27.612;2024-01-30T05:44:21;1028.4;;;2.7;64
53699;BME280;68408;53.952;27.612;2024-01-30T05:49:05;1028.4;;;2.7;63.9
53699;BME280;68408;53.952;27.612;2024-01-30T05:53:53;1028.4;;;2.7;63.8
53699;BME280;68408;53.952;27.612;2024-01-30T05:59:17;1028.4;;;2.7;63.7
53699;BME280;68408;53.952;27.612;2024-01-30T06:04:21;1028.3;;;2.8;63.5
53699;BME280;68408;53.952;27.612;2024-01-30T06:08:53;1028.2;;;2.7;63.4
53699;BME280;68408;53.952;27.612;2024-01-30T06:14:11;1028.2;;;2.7;63.3
53699;BME280;68408;53.952;27.612;2024-01-30T06:19:01;1028.2;;;2.6;63.3
53699;BME280;68408;53.952;27.612;2024-01-30T06:24:29;1028.2;;;2.6;63.3
53699;BME280;68408;53.952;27.612;2024-01-30T06:28:53;1028.2;;;2.6;63.3
53699;BME280;68408;53.952;27.612;2024-01-30T06:34:22;1028.1;;;2.6;63.4
53699;BME280;68408;53.952;27.612;2024-01-30T06:38:59;1028;;;2.6;63.3
53699;BME280;68408;53.952;27.612;2024-01-30T06:43:53;1028;;;2.6;63.2
53699;BME280;68408;53.952;27.612;2024-01-30T06:48:53;1028;;;2.6;63.2
53699;BME280;68408;53.952;27.612;2024-01-30T06:54:01;1027.9;;;2.6;63.2
53699;BME280;68408;53.952;27.612;2024-01-30T06:58:53;1027.9;;;2.5;63.2
53699;BME280;68408;53.952;27.612;2024-01-30T07:04:09;1027.8;;;2.5;63.2
53699;BME280;68408;53.952;27.612;2024-01-30T07:09:07;1027.8;;;2.5;63.4
53699;BME280;68408;53.952;27.612;2024-01-30T07:14:31;1027.7;;;2.6;63.4
53699;BME280;68408;53.952;27.612;2024-01-30T07:19:31;1027.6;;;2.7;63.1
53699;BME280;68408;53.952;27.612;2024-01-30T07:24:29;1027.6;;;2.8;62.8
53699;BME280;68408;53.952;27.612;2024-01-30T07:29:05;1027.6;;;3;62.3
53699;BME280;68408;53.952;27.612;2024-01-30T07:34:09;1027.6;;;3.1;61.8
53699;BME280;68408;53.952;27.612;2024-01-30T07:39:21;1027.6;;;3.3;61.4
53699;BME280;68408;53.952;27.612;2024-01-30T07:44:05;1027.5;;;3.5;60.8
53699;BME280;68408;53.952;27.612;2024-01-30T07:48:57;1027.5;;;3.6;60.4
53699;BME280;68408;53.952;27.612;2024-01-30T07:53:59;1027.6;;;3.9;59.9
53699;BME280;68408;53.952;27.612;2024-01-30T07:59:29;1027.6;;;4;59.2
53699;BME280;68408;53.952;27.612;2024-01-30T08:04:09;1027.6;;;4.1;58.7
53699;BME280;68408;53.952;27.612;2024-01-30T08:09:19;1027.5;;;4.2;58.6
53699;BME280;68408;53.952;27.612;2024-01-30T08:14:15;1027.5;;;4.5;58
53699;BME280;68408;53.952;27.612;2024-01-30T08:18:53;1027.6;;;4.7;57.5
53699;BME280;68408;53.952;27.612;2024-01-30T08:23:53;1027.6;;;5;56.8
53699;BME280;68408;53.952;27.612;2024-01-30T08:28:53;1027.5;;;5.1;56.2
53699;BME280;68408;53.952;27.612;2024-01-30T08:33:54;1027.4;;;5.2;56
53699;BME280;68408;53.952;27.612;2024-01-30T08:39:29;1027.3;;;5.4;55.2
53699;BME280;68408;53.952;27.612;2024-01-30T08:44:10;1027.3;;;5.5;55
53699;BME280;68408;53.952;27.612;2024-01-30T08:49:05;1027.3;;;5.7;54.7
53699;BME280;68408;53.952;27.612;2024-01-30T08:54:30;1027.3;;;5.9;54
53699;BME280;68408;53.952;27.612;2024-01-30T08:58:53;1027.2;;;6;53.9
53699;BME280;68408;53.952;27.612;2024-01-30T09:04:29;1027.1;;;6.1;53.6
53699;BME280;68408;53.952;27.612;2024-01-30T09:09:29;1027.1;;;6;53.4
53699;BME280;68408;53.952;27.612;2024-01-30T09:14:19;1027.1;;;5.9;53.4
53699;BME280;68408;53.952;27.612;2024-01-30T09:18:53;1027.2;;;6;53.3
53699;BME280;68408;53.952;27.612;2024-01-30T09:24:15;1027.1;;;6.1;53.1
53699;BME280;68408;53.952;27.612;2024-01-30T09:29:31;1027.1;;;6;52.7
53699;BME280;68408;53.952;27.612;2024-01-30T09:34:31;1027.2;;;5.7;53.2
53699;BME280;68408;53.952;27.612;2024-01-30T09:38:59;1027.1;;;5.6;53.5
53699;BME280;68408;53.952;27.612;2024-01-30T09:44:31;1027.1;;;5.7;53.5
53699;BME280;68408;53.952;27.612;2024-01-30T09:49:32;1027;;;6;53
53699;BME280;68408;53.952;27.612;2024-01-30T09:53:54;1027;;;6.2;52.6
53699;BME280;68408;53.952;27.612;2024-01-30T09:59:05;1026.9;;;6.4;52.1
53699;BME280;68408;53.952;27.612;2024-01-30T10:03:59;1026.9;;;6.5;51.8
53699;BME280;68408;53.952;27.612;2024-01-30T10:09:00;1026.8;;;6.8;51.4
53699;BME280;68408;53.952;27.612;2024-01-30T10:13:53;1026.8;;;6.9;50.8
53699;BME280;68408;53.952;27.612;2024-01-30T10:19:22;1026.7;;;6.9;50.8
53699;BME280;68408;53.952;27.612;2024-01-30T10:24:09;1026.6;;;7;50.5
53699;BME280;68408;53.952;27.612;2024-01-30T10:29:32;1026.6;;;6.9;50.3
53699;BME280;68408;53.952;27.612;2024-01-30T10:34:01;1026.5;;;6.9;50.3
53699;BME280;68408;53.952;27.612;2024-01-30T10:39:31;1026.5;;;6.8;50.1
53699;BME280;68408;53.952;27.612;2024-01-30T10:44:10;1026.4;;;6.7;50.3
53699;BME280;68408;53.952;27.612;2024-01-30T10:49:09;1026.5;;;6.7;50.3
53699;BME280;68408;53.952;27.612;2024-01-30T10:53:55;1026.4;;;6.6;50.2
53699;BME280;68408;53.952;27.612;2024-01-30T10:59:09;1026.4;;;6.7;50.3
53699;BME280;68408;53.952;27.612;2024-01-30T11:04:21;1026.3;;;6.9;50.3
53699;BME280;68408;53.952;27.612;2024-01-30T11:09:22;1026.3;;;7.1;49.8
53699;BME280;68408;53.952;27.612;2024-01-30T11:14:12;1026.2;;;7.3;49.4
53699;BME280;68408;53.952;27.612;2024-01-30T11:19:32;1026.2;;;7.3;49
53699;BME280;68408;53.952;27.612;2024-01-30T11:24:09;1026.1;;;7.1;49.1
53699;BME280;68408;53.952;27.612;2024-01-30T11:29:03;1026.1;;;7.1;49.3
53699;BME280;68408;53.952;27.612;2024-01-30T11:34:06;1026;;;7.2;49
53699;BME280;68408;53.952;27.612;2024-01-30T11:38:57;1026;;;7.3;49
53699;BME280;68408;53.952;27.612;2024-01-30T11:44:12;1026;;;7.4;48.7
53699;BME280;68408;53.952;27.612;2024-01-30T11:48:54;1026;;;7.3;48.5
53699;BME280;68408;53.952;27.612;2024-01-30T11:54:21;1026;;;7.3;48.6
53699;BME280;68408;53.952;27.612;2024-01-30T11:58:54;1026;;;7.4;48.5
53699;BME280;68408;53.952;27.612;2024-01-30T12:04:30;1025.9;;;7.4;48.4
53699;BME280;68408;53.952;27.612;2024-01-30T12:09:08;1025.9;;;7.4;48.3
53699;BME280;68408;53.952;27.612;2024-01-30T12:14:29;1025.8;;;7.3;48.2
53699;BME280;68408;53.952;27.612;2024-01-30T12:19:00;1025.7;;;7.2;48
53699;BME280;68408;53.952;27.612;2024-01-30T12:24:22;1025.7;;;7.2;48.5
53699;BME280;68408;53.952;27.612;2024-01-30T12:29:22;1025.7;;;7.4;48.4
53699;BME280;68408;53.952;27.612;2024-01-30T12:34:16;1025.6;;;7.5;48.2
53699;BME280;68408;53.952;27.612;2024-01-30T12:39:16;1025.5;;;7.6;48
53699;BME280;68408;53.952;27.612;2024-01-30T12:44:20;1025.4;;;7.6;47.9
53699;BME280;68408;53.952;27.612;2024-01-30T12:49:10;1025.4;;;7.6;47.8
53699;BME280;68408;53.952;27.612;2024-01-30T12:54:28;1025.3;;;7.7;47.7
53699;BME280;68408;53.952;27.612;2024-01-30T12:59:30;1025.2;;;7.7;47.5
53699;BME280;68408;53.952;27.612;2024-01-30T13:04:22;1025.2;;;7.5;47.7
53699;BME280;68408;53.952;27.612;2024-01-30T13:08:58;1025.1;;;7.4;47.9
53699;BME280;68408;53.952;27.612;2024-01-30T13:13:58;1025.1;;;7.3;48.3
53699;BME280;68408;53.952;27.612;2024-01-30T13:18:54;1025.2;;;7.3;48.5
53699;BME280;68408;53.952;27.612;2024-01-30T13:23:54;1025.1;;;7.2;48.6
53699;BME280;68408;53.952;27.612;2024-01-30T13:28:58;1025.1;;;7.1;48.7
53699;BME280;68408;53.952;27.612;2024-01-30T13:34:02;1025.1;;;6.9;49
53699;BME280;68408;53.952;27.612;2024-01-30T13:39:10;1025.2;;;6.7;49.4
53699;BME280;68408;53.952;27.612;2024-01-30T13:44:00;1025.2;;;6.6;49.7
53699;BME280;68408;53.952;27.612;2024-01-30T13:49:14;1025.2;;;6.6;49.9
53699;BME280;68408;53.952;27.612;2024-01-30T13:54:22;1025.2;;;6.5;50.3
53699;BME280;68408;53.952;27.612;2024-01-30T13:59:12;1025.3;;;6.5;50.2
53699;BME280;68408;53.952;27.612;2024-01-30T14:04:06;1025.2;;;6.3;50.6
53699;BME280;68408;53.952;27.612;2024-01-30T14:09:16;1025.2;;;6.2;50.8
53699;BME280;68408;53.952;27.612;2024-01-30T14:14:20;1025.2;;;6.1;51.1
53699;BME280;68408;53.952;27.612;2024-01-30T14:19:08;1025.2;;;6;51.2
53699;BME280;68408;53.952;27.612;2024-01-30T14:23:54;1025.2;;;5.8;51.6
53699;BME280;68408;53.952;27.612;2024-01-30T14:29:28;1025.1;;;5.7;51.9
53699;BME280;68408;53.952;27.612;2024-01-30T14:34:28;1025.1;;;5.5;52.3
53699;BME280;68408;53.952;27.612;2024-01-30T14:39:06;1025.1;;;5.4;52.6
53699;BME280;68408;53.952;27.612;2024-01-30T14:44:20;1025.2;;;5.3;52.8
53699;BME280;68408;53.952;27.612;2024-01-30T14:48:54;1025.1;;;5.2;53.2
53699;BME280;68408;53.952;27.612;2024-01-30T14:53:54;1025.2;;;5;53.5
53699;BME280;68408;53.952;27.612;2024-01-30T14:59:02;1025.2;;;5;53.8
53699;BME280;68408;53.952;27.612;2024-01-30T15:03:54;1025.2;;;4.8;54.2
53699;BME280;68408;53.952;27.612;2024-01-30T15:08:58;1025.2;;;4.8;54.5
53699;BME280;68408;53.952;27.612;2024-01-30T15:14:16;1025.2;;;4.7;54.9
53699;BME280;68408;53.952;27.612;2024-01-30T15:18:54;1025.2;;;4.7;54.9
53699;BME280;68408;53.952;27.612;2024-01-30T15:24:28;1025.2;;;4.8;54.9
53699;BME280;68408;53.952;27.612;2024-01-30T15:29:08;1025.2;;;4.8;54.9
53699;BME280;68408;53.952;27.612;2024-01-30T15:34:08;1025.2;;;4.8;55
53699;BME280;68408;53.952;27.612;2024-01-30T15:38:54;1025.2;;;4.8;55.1
53699;BME280;68408;53.952;27.612;2024-01-30T15:44:16;1025.1;;;4.8;55.1
53699;BME280;68408;53.952;27.612;2024-01-30T15:49:08;1025.1;;;4.8;55.1
53699;BME280;68408;53.952;27.612;2024-01-30T15:53:54;1025.1;;;4.8;55.2
53699;BME280;68408;53.952;27.612;2024-01-30T15:58:54;1025.1;;;4.9;55.1
53699;BME280;68408;53.952;27.612;2024-01-30T16:04:20;1025.1;;;4.9;55
53699;BME280;68408;53.952;27.612;2024-01-30T16:09:28;1025.2;;;4.9;55
53699;BME280;68408;53.952;27.612;2024-01-30T16:14:10;1025.1;;;5;54.9
53699;BME280;68408;53.952;27.612;2024-01-30T16:19:12;1025.1;;;5;54.9
53699;BME280;68408;53.952;27.612;2024-01-30T16:24:04;1025.1;;;5.1;54.8
53699;BME280;68408;53.952;27.612;2024-01-30T16:28:54;1025.1;;;5.1;54.7
53699;BME280;68408;53.952;27.612;2024-01-30T16:33:54;1025;;;5;54.8
53699;BME280;68408;53.952;27.612;2024-01-30T16:38:58;1025.1;;;5;54.8
53699;BME280;68408;53.952;27.612;2024-01-30T16:44:20;1025.1;;;5;54.9
53699;BME280;68408;53.952;27.612;2024-01-30T16:49:28;1025.1;;;5;54.9
53699;BME280;68408;53.952;27.612;2024-01-30T16:54:20;1025.1;;;5;55
53699;BME280;68408;53.952;27.612;2024-01-30T16:59:28;1025.1;;;5;54.9
53699;BME280;68408;53.952;27.612;2024-01-30T17:04:14;1025.1;;;5;54.9
53699;BME280;68408;53.952;27.612;2024-01-30T17:08:54;1025.2;;;5;55
53699;BME280;68408;53.952;27.612;2024-01-30T17:14:20;1025.2;;;5;55
53699;BME280;68408;53.952;27.612;2024-01-30T17:19:32;1025.2;;;5;55.1
53699;BME280;68408;53.952;27.612;2024-01-30T17:24:22;1025.1;;;4.9;55.1
53699;BME280;68408;53.952;27.612;2024-01-30T17:28:54;1025.2;;;4.9;55.1
53699;BME280;68408;53.952;27.612;2024-01-30T17:34:03;1025.1;;;4.9;55.2
53699;BME280;68408;53.952;27.612;2024-01-30T17:39:22;1025.1;;;4.8;55.3
53699;BME280;68408;53.952;27.612;2024-01-30T17:44:32;1025.1;;;4.8;55.3
53699;BME280;68408;53.952;27.612;2024-01-30T17:48:54;1025.1;;;4.7;55.5
53699;BME280;68408;53.952;27.612;2024-01-30T17:54:32;1025.1;;;4.7;55.6
53699;BME280;68408;53.952;27.612;2024-01-30T17:59:22;1025;;;4.7;55.7
53699;BME280;68408;53.952;27.612;2024-01-30T18:03:54;1025;;;4.7;55.7
53699;BME280;68408;53.952;27.612;2024-01-30T18:08:54;1025;;;4.7;55.7
53699;BME280;68408;53.952;27.612;2024-01-30T18:13:54;1025;;;4.7;55.7
53699;BME280;68408;53.952;27.612;2024-01-30T18:18:54;1024.9;;;4.7;55.7
53699;BME280;68408;53.952;27.612;2024-01-30T18:23:54;1024.9;;;4.7;55.7
53699;BME280;68408;53.952;27.612;2024-01-30T18:29:22;1024.8;;;4.7;55.7
53699;BME280;68408;53.952;27.612;2024-01-30T18:33:54;1024.8;;;4.7;55.8
53699;BME280;68408;53.952;27.612;2024-01-30T18:39:32;1024.8;;;4.7;55.8
53699;BME280;68408;53.952;27.612;2024-01-30T18:44:08;1024.7;;;4.7;55.8
53699;BME280;68408;53.952;27.612;2024-01-30T18:49:32;1024.8;;;4.7;55.8
53699;BME280;68408;53.952;27.612;2024-01-30T18:54:08;1024.8;;;4.6;55.9
53699;BME280;68408;53.952;27.612;2024-01-30T18:58:56;1024.7;;;4.5;56
53699;BME280;68408;53.952;27.612;2024-01-30T19:04:02;1024.7;;;4.5;56.2
53699;BME280;68408;53.952;27.612;2024-01-30T19:09:19;1024.7;;;4.5;56.3
53699;BME280;68408;53.952;27.612;2024-01-30T19:14:33;1024.7;;;4.5;56.4
53699;BME280;68408;53.952;27.612;2024-01-30T19:19:08;1024.7;;;4.4;56.4
53699;BME280;68408;53.952;27.612;2024-01-30T19:24:06;1024.7;;;4.4;56.5
53699;BME280;68408;53.952;27.612;2024-01-30T19:29:32;1024.6;;;4.4;56.6
53699;BME280;68408;53.952;27.612;2024-01-30T19:34:06;1024.6;;;4.4;56.6
53699;BME280;68408;53.952;27.612;2024-01-30T19:39:08;1024.6;;;4.4;56.6
53699;BME280;68408;53.952;27.612;2024-01-30T19:44:06;1024.5;;;4.4;56.6
53699;BME280;68408;53.952;27.612;2024-01-30T19:49:08;1024.5;;;4.3;56.6
53699;BME280;68408;53.952;27.612;2024-01-30T19:54:00;1024.5;;;4.3;56.7
53699;BME280;68408;53.952;27.612;2024-01-30T19:58:54;1024.5;;;4.3;56.8
53699;BME280;68408;53.952;27.612;2024-01-30T20:04:22;1024.5;;;4.2;57
53699;BME280;68408;53.952;27.612;2024-01-30T20:09:14;1024.4;;;4.2;57
53699;BME280;68408;53.952;27.612;2024-01-30T20:14:32;1024.4;;;4.2;57.1
53699;BME280;68408;53.952;27.612;2024-01-30T20:19:08;1024.3;;;4.2;57.1
53699;BME280;68408;53.952;27.612;2024-01-30T20:24:32;1024.2;;;4.1;57.2
53699;BME280;68408;53.952;27.612;2024-01-30T20:29:10;1024.2;;;4.1;57.2
53699;BME280;68408;53.952;27.612;2024-01-30T20:34:16;1024.2;;;4;57.4
53699;BME280;68408;53.952;27.612;2024-01-30T20:39:06;1024.1;;;4;57.5
53699;BME280;68408;53.952;27.612;2024-01-30T20:44:18;1024.1;;;3.9;57.5
53699;BME280;68408;53.952;27.612;2024-01-30T20:49:22;1024;;;3.9;57.7
53699;BME280;68408;53.952;27.612;2024-01-30T20:54:14;1024;;;3.8;57.8
53699;BME280;68408;53.952;27.612;2024-01-30T20:59:06;1023.9;;;3.8;58
53699;BME280;68408;53.952;27.612;2024-01-30T21:04:32;1023.9;;;3.8;58
53699;BME280;68408;53.952;27.612;2024-01-30T21:09:32;1023.9;;;3.8;58.1
53699;BME280;68408;53.952;27.612;2024-01-30T21:14:22;1023.8;;;3.8;58.1
53699;BME280;68408;53.952;27.612;2024-01-30T21:19:06;1023.8;;;3.8;58.1
53699;BME280;68408;53.952;27.612;2024-01-30T21:24:08;1023.8;;;3.8;58.1
53699;BME280;68408;53.952;27.612;2024-01-30T21:28:54;1023.8;;;3.8;58.2
53699;BME280;68408;53.952;27.612;2024-01-30T21:33:54;1023.8;;;3.8;58.2
53699;BME280;68408;53.952;27.612;2024-01-30T21:39:00;1023.8;;;3.9;58.1
53699;BME280;68408;53.952;27.612;2024-01-30T21:43:54;1023.8;;;3.8;58.1
53699;BME280;68408;53.952;27.612;2024-01-30T21:49:12;1023.7;;;3.8;58.2
53699;BME280;68408;53.952;27.612;2024-01-30T21:54:00;1023.6;;;3.8;58.2
53699;BME280;68408;53.952;27.612;2024-01-30T21:59:32;1023.6;;;3.8;58.3
53699;BME280;68408;53.952;27.612;2024-01-30T22:04:22;1023.6;;;3.8;58.3
53699;BME280;68408;53.952;27.612;2024-01-30T22:09:04;1023.6;;;3.8;58.2
53699;BME280;68408;53.952;27.612;2024-01-30T22:14:08;1023.6;;;3.7;58.3
53699;BME280;68408;53.952;27.612;2024-01-30T22:19:04;1023.6;;;3.7;58.4
53699;BME280;68408;53.952;27.612;2024-01-30T22:24:22;1023.6;;;3.7;58.4
53699;BME280;68408;53.952;27.612;2024-01-30T22:28:58;1023.5;;;3.7;58.4
53699;BME280;68408;53.952;27.612;2024-01-30T22:34:22;1023.4;;;3.7;58.5
53699;BME280;68408;53.952;27.612;2024-01-30T22:39:22;1023.4;;;3.7;58.5
53699;BME280;68408;53.952;27.612;2024-01-30T22:44:32;1023.4;;;3.7;58.5
53699;BME280;68408;53.952;27.612;2024-01-30T22:48:54;1023.3;;;3.7;58.5
53699;BME280;68408;53.952;27.612;2024-01-30T22:54:22;1023.3;;;3.7;58.5
53699;BME280;68408;53.952;27.612;2024-01-30T22:59:04;1023.3;;;3.6;58.5
53699;BME280;68408;53.952;27.612;2024-01-30T23:04:22;1023.2;;;3.6;58.6
53699;BME280;68408;53.952;27.612;2024-01-30T23:09:16;1023.2;;;3.5;58.8
53699;BME280;68408;53.952;27.612;2024-01-30T23:13:54;1023.2;;;3.5;58.9
53699;BME280;68408;53.952;27.612;2024-01-30T23:18:54;1023.2;;;3.6;58.8
53699;BME280;68408;53.952;27.612;2024-01-30T23:24:32;1023.2;;;3.6;58.8
53699;BME280;68408;53.952;27.612;2024-01-30T23:29:22;1023.2;;;3.6;58.8
53699;BME280;68408;53.952;27.612;2024-01-30T23:34:32;1023.2;;;3.7;58.7
53699;BME280;68408;53.952;27.612;2024-01-30T23:39:22;1023.2;;;3.7;58.6
53699;BME280;68408;53.952;27.612;2024-01-30T23:44:18;1023.1;;;3.7;58.6
53699;BME280;68408;53.952;27.612;2024-01-30T23:49:08;1023;;;3.7;58.6
53699;BME280;68408;53.952;27.612;2024-01-30T23:54:02;1023;;;3.7;58.6
53699;BME280;68408;53.952;27.612;2024-01-30T23:59:22;1023;;;3.7;58.5
